Time;durP1;ratioP1;P1;durP2;ratioP2;P2;SDS_P1;SDS_P2;PMS_P1;PMS_P2;Temp;Humidity;BMP_temperature;BMP_pressure;BME280_temperature;BME280_humidity;BME280_pressure;Samples;Min_cycle;Max_cycle;Signal;HPM_P1;HPM_P2
2021/06/15 00:02:23;;;;;;;36.05;23.67;;;;;;;19.31;67.38;101846.97;5064506;28;20028;-65
2021/06/15 00:04:49;;;;;;;35.78;24.15;;;;;;;19.17;68.23;101840.94;5063490;28;20063;-65
2021/06/15 00:07:14;;;;;;;37.58;24.60;;;;;;;19.08;69.01;101839.31;5065518;28;20032;-66
2021/06/15 00:09:39;;;;;;;37.78;24.73;;;;;;;18.99;69.27;101845.69;5062393;28;20031;-67
2021/06/15 00:12:08;;;;;;;36.42;23.80;;;;;;;18.91;69.60;101839.53;5065752;28;20031;-63
2021/06/15 00:14:34;;;;;;;37.10;24.23;;;;;;;18.88;69.77;101836.91;5062752;28;20074;-63
2021/06/15 00:16:59;;;;;;;34.40;23.67;;;;;;;18.81;69.81;101848.59;5064834;28;20021;-63
2021/06/15 00:19:24;;;;;;;37.00;24.42;;;;;;;18.85;70.15;101842.28;5064587;28;20020;-63
2021/06/15 00:21:50;;;;;;;35.22;23.48;;;;;;;18.78;69.91;101840.59;5063488;28;20029;-63
2021/06/15 00:24:15;;;;;;;38.20;24.77;;;;;;;18.75;70.54;101844.19;5065111;28;20024;-62
2021/06/15 00:26:40;;;;;;;37.00;24.35;;;;;;;18.76;70.29;101842.44;5062768;28;20064;-63
2021/06/15 00:29:06;;;;;;;36.97;24.70;;;;;;;18.63;70.36;101839.03;5065391;28;20533;-63
2021/06/15 00:31:34;;;;;;;36.38;24.25;;;;;;;18.47;71.16;101846.38;5063147;28;20025;-63
2021/06/15 00:33:59;;;;;;;35.65;25.15;;;;;;;18.33;71.64;101849.22;5064570;28;20025;-62
2021/06/15 00:36:24;;;;;;;38.17;25.13;;;;;;;18.19;72.03;101846.72;5063644;28;20033;-62
2021/06/15 00:38:50;;;;;;;37.60;25.58;;;;;;;18.05;72.91;101838.81;5063118;28;20032;-63
2021/06/15 00:41:15;;;;;;;38.70;25.77;;;;;;;18.02;73.62;101841.53;5064922;28;20032;-63
2021/06/15 00:43:40;;;;;;;37.67;25.83;;;;;;;18.03;73.91;101845.13;5062070;28;20025;-63
2021/06/15 00:46:06;;;;;;;37.47;24.77;;;;;;;18.10;73.48;101854.81;5065250;28;20032;-62
2021/06/15 00:48:34;;;;;;;39.58;26.45;;;;;;;18.11;73.80;101854.84;5062497;28;20021;-62
2021/06/15 00:51:00;;;;;;;36.95;25.50;;;;;;;18.04;73.53;101842.44;5064044;28;20023;-63
2021/06/15 00:53:26;;;;;;;37.80;26.65;;;;;;;17.87;74.10;101847.03;5063769;28;20107;-67
2021/06/15 00:55:53;;;;;;;35.72;24.98;;;;;;;17.89;74.76;101850.56;5063079;28;20055;-67
2021/06/15 00:58:19;;;;;;;40.15;25.73;;;;;;;17.92;75.46;101859.47;5064012;28;20047;-68
2021/06/15 01:00:44;;;;;;;35.55;24.55;;;;;;;17.94;75.18;101862.16;5061906;28;20033;-67
2021/06/15 01:03:12;;;;;;;36.75;25.67;;;;;;;17.90;75.14;101860.41;5064754;28;20486;-67
2021/06/15 01:05:37;;;;;;;39.25;25.52;;;;;;;17.89;74.93;101851.44;5061350;28;20479;-66
2021/06/15 01:08:27;;;;;;;38.50;25.13;;;;;;;17.90;73.39;101853.25;5064843;28;20032;-66
2021/06/15 01:11:13;;;;;;;37.08;24.77;;;;;;;17.88;73.74;101856.81;5060834;28;20495;-67
2021/06/15 01:14:10;;;;;;;35.97;24.88;;;;;;;17.81;73.18;101861.34;5057442;28;20032;-63
2021/06/15 01:16:49;;;;;;;36.72;24.75;;;;;;;17.78;74.87;101854.25;5063935;28;20126;-66
2021/06/15 01:19:33;;;;;;;39.05;25.25;;;;;;;17.84;77.04;101855.06;5058583;28;20460;-67
2021/06/15 01:22:28;;;;;;;37.28;26.05;;;;;;;17.83;77.02;101858.66;5062387;28;20036;-67
2021/06/15 01:25:04;;;;;;;35.67;24.45;;;;;;;17.84;75.70;101869.34;5058468;28;20041;-67
2021/06/15 01:27:38;;;;;;;36.28;24.50;;;;;;;17.80;76.37;101877.41;5059772;28;20028;-68
2021/06/15 01:30:07;;;;;;;35.70;24.63;;;;;;;17.71;77.28;101871.25;5062026;28;20072;-67
2021/06/15 01:32:34;;;;;;;36.80;24.55;;;;;;;17.65;77.67;101865.97;5059656;28;20052;-67
2021/06/15 01:35:00;;;;;;;36.47;24.08;;;;;;;17.68;77.69;101865.94;5061106;28;20033;-66
2021/06/15 01:37:35;;;;;;;36.35;24.95;;;;;;;17.59;77.04;101872.25;5060590;28;20383;-64
2021/06/15 01:40:14;;;;;;;36.35;24.58;;;;;;;17.64;76.63;101874.00;5060804;28;20547;-67
2021/06/15 01:42:46;;;;;;;36.25;25.15;;;;;;;17.56;77.86;101874.03;5054879;28;20045;-66
2021/06/15 01:45:22;;;;;;;36.92;24.15;;;;;;;17.60;77.64;101878.47;5055015;28;20029;-67
2021/06/15 01:48:13;;;;;;;35.13;23.42;;;;;;;17.59;76.35;101885.59;5059155;28;20029;-66
2021/06/15 01:50:41;;;;;;;37.92;23.33;;;;;;;17.47;78.30;101887.47;5054569;28;20032;-67
2021/06/15 01:53:09;;;;;;;34.92;22.80;;;;;;;17.48;78.32;101891.94;5061795;28;20131;-67
2021/06/15 01:55:36;;;;;;;35.65;23.65;;;;;;;17.47;78.43;101895.50;5059245;28;20068;-66
2021/06/15 01:58:03;;;;;;;34.42;23.42;;;;;;;17.49;78.33;101891.03;5061120;28;20553;-67
2021/06/15 02:00:30;;;;;;;36.22;24.00;;;;;;;17.32;78.94;101893.84;5059618;28;20047;-66
2021/06/15 02:02:56;;;;;;;36.05;23.13;;;;;;;17.34;78.98;101894.69;5060722;28;20060;-66
2021/06/15 02:05:34;;;;;;;34.30;22.55;;;;;;;17.43;77.53;101897.34;5063048;28;20024;-67
2021/06/15 02:08:01;;;;;;;32.67;22.05;;;;;;;17.46;78.18;101901.75;5062573;28;20152;-67
2021/06/15 02:10:29;;;;;;;32.83;21.40;;;;;;;17.42;78.30;101900.88;5062585;28;20024;-67
2021/06/15 02:12:56;;;;;;;32.63;21.95;;;;;;;17.39;78.16;101904.47;5062308;28;20040;-67
2021/06/15 02:15:24;;;;;;;32.53;22.13;;;;;;;17.26;78.94;101902.78;5062788;28;20534;-67
2021/06/15 02:17:51;;;;;;;34.90;21.60;;;;;;;17.24;79.25;101905.47;5061504;28;20044;-66
2021/06/15 02:20:18;;;;;;;35.00;21.85;;;;;;;17.17;79.81;101916.19;5063604;28;20029;-67
2021/06/15 02:22:46;;;;;;;32.58;21.00;;;;;;;17.19;79.38;101919.75;5060439;28;20036;-64
2021/06/15 02:25:18;;;;;;;33.38;21.13;;;;;;;17.20;79.18;101913.50;5063756;28;20468;-65
2021/06/15 02:27:43;;;;;;;32.83;20.70;;;;;;;17.18;79.54;101909.94;5057209;28;20056;-62
2021/06/15 02:30:09;;;;;;;33.03;21.52;;;;;;;17.08;80.14;101917.13;5064108;28;20526;-62
2021/06/15 02:32:36;;;;;;;32.83;20.90;;;;;;;17.08;80.01;101919.78;5060810;28;20033;-64
2021/06/15 02:35:09;;;;;;;31.88;20.58;;;;;;;17.10;79.72;101925.16;5062991;28;20543;-62
2021/06/15 02:37:39;;;;;;;32.22;21.40;;;;;;;17.07;79.99;101921.59;5060921;28;20037;-62
2021/06/15 02:40:06;;;;;;;33.20;21.05;;;;;;;16.99;80.19;101915.38;5063113;28;20029;-62
2021/06/15 02:42:39;;;;;;;31.75;20.60;;;;;;;16.93;80.65;101909.22;5061339;28;20059;-62
2021/06/15 02:45:06;;;;;;;32.17;21.27;;;;;;;16.98;80.37;101918.06;5063205;28;20037;-63
2021/06/15 02:47:34;;;;;;;30.73;21.17;;;;;;;16.96;80.53;101917.22;5061396;28;20031;-63
2021/06/15 02:50:01;;;;;;;32.10;21.17;;;;;;;16.93;80.82;101918.09;5062458;28;20406;-63
2021/06/15 02:53:07;;;;;;;31.08;20.77;;;;;;;16.97;78.90;101925.22;5064760;28;20029;-63
2021/06/15 02:55:37;;;;;;;30.95;20.30;;;;;;;16.86;80.80;101914.56;5063498;28;20040;-63
2021/06/15 02:58:02;;;;;;;30.92;19.95;;;;;;;16.87;80.58;101902.09;5062862;28;20054;-63
2021/06/15 03:00:28;;;;;;;30.45;19.92;;;;;;;16.85;80.83;101899.41;5063728;28;20104;-63
2021/06/15 03:02:53;;;;;;;32.10;19.92;;;;;;;16.85;80.63;101906.56;5063582;28;20048;-62
2021/06/15 03:05:19;;;;;;;30.48;20.00;;;;;;;16.82;81.07;101903.88;5062407;28;20373;-63
2021/06/15 03:07:49;;;;;;;30.58;20.05;;;;;;;16.82;81.16;101903.88;5064755;28;20040;-62
2021/06/15 03:10:16;;;;;;;29.95;18.42;;;;;;;16.78;80.97;101900.34;5061502;28;20116;-63
2021/06/15 03:12:45;;;;;;;30.83;19.70;;;;;;;16.73;81.02;101903.03;5064998;28;20037;-63
2021/06/15 03:15:14;;;;;;;29.92;19.88;;;;;;;16.65;81.54;101912.84;5061457;28;20384;-63
2021/06/15 03:17:49;;;;;;;30.05;18.98;;;;;;;16.82;80.86;101922.56;5057462;28;20473;-62
2021/06/15 03:20:15;;;;;;;29.90;19.27;;;;;;;16.84;80.58;101915.44;5058008;28;20116;-63
2021/06/15 03:22:46;;;;;;;29.70;18.58;;;;;;;16.87;79.90;101912.75;5064891;28;20028;-63
2021/06/15 03:25:15;;;;;;;30.15;18.52;;;;;;;16.81;80.34;101913.69;5061103;28;20504;-63
2021/06/15 03:28:20;;;;;;;27.75;17.40;;;;;;;16.86;78.57;101917.22;5057325;28;20112;-63
2021/06/15 03:30:47;;;;;;;30.42;18.10;;;;;;;16.76;80.08;101915.50;4998575;28;20501;-63
2021/06/15 03:33:16;;;;;;;27.98;17.35;;;;;;;16.82;79.32;101919.91;5005116;28;20045;-63
2021/06/15 03:35:47;;;;;;;27.33;16.50;;;;;;;16.90;78.98;101921.66;5001784;28;20034;-63
2021/06/15 03:38:14;;;;;;;28.27;17.23;;;;;;;16.92;79.04;101924.38;5005087;28;20038;-63
2021/06/15 03:40:50;;;;;;;29.00;17.58;;;;;;;16.85;78.73;101925.25;5001500;28;20162;-63
2021/06/15 03:43:18;;;;;;;27.27;17.10;;;;;;;16.90;78.75;101934.13;5004577;28;20041;-63
2021/06/15 03:45:48;;;;;;;27.98;17.35;;;;;;;16.88;78.65;101928.81;5001584;28;20382;-63
2021/06/15 03:48:14;;;;;;;29.60;17.60;;;;;;;16.89;78.70;101935.94;5004692;28;20026;-64
2021/06/15 03:50:40;;;;;;;28.73;16.90;;;;;;;16.92;78.18;101943.06;4997328;28;20417;-66
2021/06/15 03:53:09;;;;;;;27.52;16.52;;;;;;;16.92;78.51;101936.81;5004394;28;20026;-65
2021/06/15 03:55:37;;;;;;;28.83;17.45;;;;;;;16.96;78.32;101950.13;5002052;28;20038;-66
2021/06/15 03:58:06;;;;;;;27.92;16.67;;;;;;;17.00;78.07;101941.22;5003616;28;20042;-66
2021/06/15 04:00:34;;;;;;;28.38;17.00;;;;;;;17.07;77.84;101952.78;5001988;28;20026;-66
2021/06/15 04:03:03;;;;;;;29.05;17.58;;;;;;;17.08;77.48;101941.16;5002629;28;20505;-67
2021/06/15 04:05:29;;;;;;;28.48;15.93;;;;;;;17.02;77.63;101938.53;5051913;28;20044;-66
2021/06/15 04:07:57;;;;;;;28.65;15.77;;;;;;;17.01;77.61;101950.13;5063693;28;20542;-67
2021/06/15 04:10:23;;;;;;;27.83;15.85;;;;;;;17.07;77.49;101963.44;5065080;28;20032;-66
2021/06/15 04:12:50;;;;;;;26.55;16.05;;;;;;;17.07;77.47;101958.97;5062971;28;20029;-66
2021/06/15 04:15:17;;;;;;;28.30;16.63;;;;;;;16.98;77.76;101958.13;5065496;28;20078;-66
2021/06/15 04:17:49;;;;;;;26.25;15.77;;;;;;;17.08;77.03;101954.53;5062474;28;20032;-67
2021/06/15 04:20:19;;;;;;;26.90;15.77;;;;;;;17.12;76.46;101961.63;5059036;28;20025;-66
2021/06/15 04:22:46;;;;;;;28.70;15.20;;;;;;;17.11;76.60;101962.53;5057496;28;20086;-64
2021/06/15 04:25:16;;;;;;;27.80;14.35;;;;;;;17.10;76.75;101958.09;5058589;28;20056;-66
2021/06/15 04:27:41;;;;;;;25.95;13.93;;;;;;;17.16;76.15;101958.06;5058538;28;20112;-65
2021/06/15 04:30:09;;;;;;;25.75;13.88;;;;;;;17.13;76.03;101960.75;5065011;28;20107;-65
2021/06/15 04:32:45;;;;;;;25.00;13.60;;;;;;;17.29;75.34;101956.19;5062788;28;20595;-66
2021/06/15 04:35:12;;;;;;;26.35;14.20;;;;;;;17.30;75.24;101952.63;5058330;28;20070;-65
2021/06/15 04:37:38;;;;;;;26.42;13.48;;;;;;;17.48;74.50;101958.75;5065445;28;20418;-65
2021/06/15 04:40:14;;;;;;;28.35;13.95;;;;;;;17.48;73.84;101956.09;5062759;28;20476;-63
2021/06/15 04:43:00;;;;;;;23.90;13.07;;;;;;;17.52;73.40;101956.06;5065482;28;20017;-63
2021/06/15 04:45:29;;;;;;;26.42;13.48;;;;;;;17.50;73.71;101956.94;5061232;28;20024;-67
2021/06/15 04:48:03;;;;;;;25.65;13.70;;;;;;;17.64;72.84;101963.09;5064121;28;20036;-63
2021/06/15 04:50:30;;;;;;;27.75;13.73;;;;;;;17.72;72.44;101961.25;5063826;28;20029;-64
2021/06/15 04:52:58;;;;;;;26.60;13.82;;;;;;;17.80;72.10;101955.84;5063804;28;20029;-63
2021/06/15 04:55:36;;;;;;;25.13;13.20;;;;;;;17.92;71.15;101954.88;5062855;28;20029;-63
2021/06/15 04:58:03;;;;;;;27.30;13.25;;;;;;;17.97;70.50;101957.50;5063021;28;20039;-64
2021/06/15 05:00:30;;;;;;;26.10;13.23;;;;;;;18.05;69.57;101956.53;5063400;28;20108;-65
2021/06/15 05:02:58;;;;;;;26.00;13.05;;;;;;;18.06;69.44;101966.34;5063357;28;20553;-64
2021/06/15 05:05:24;;;;;;;23.38;12.35;;;;;;;18.11;69.37;101966.31;5062874;28;20079;-63
2021/06/15 05:08:01;;;;;;;24.63;12.57;;;;;;;18.27;68.70;101965.25;5064065;28;20387;-65
2021/06/15 05:10:31;;;;;;;25.27;12.27;;;;;;;18.32;68.12;101965.22;5062953;28;20479;-64
2021/06/15 05:12:58;;;;;;;24.00;11.73;;;;;;;18.30;67.29;101980.38;5063214;28;20477;-64
2021/06/15 05:15:26;;;;;;;24.95;12.60;;;;;;;18.22;67.78;101976.91;5061786;28;20495;-64
2021/06/15 05:17:55;;;;;;;23.92;12.57;;;;;;;18.25;67.72;101990.28;5063811;28;20391;-62
2021/06/15 05:20:22;;;;;;;24.35;12.50;;;;;;;18.19;67.45;101985.84;5061976;28;20021;-65
2021/06/15 05:23:11;;;;;;;24.25;12.50;;;;;;;18.17;68.13;101993.00;5061702;28;20113;-63
2021/06/15 05:25:36;;;;;;;25.90;13.13;;;;;;;18.12;68.34;101997.50;5058071;28;20046;-65
2021/06/15 05:28:02;;;;;;;23.25;12.48;;;;;;;18.15;68.54;101994.81;5060064;28;20033;-65
2021/06/15 05:30:30;;;;;;;27.35;13.32;;;;;;;18.12;68.08;102001.06;5059970;28;20475;-64
2021/06/15 05:32:56;;;;;;;24.50;12.70;;;;;;;18.16;67.71;101998.34;5056372;28;20049;-64
2021/06/15 05:35:22;;;;;;;26.00;13.40;;;;;;;18.28;67.49;102000.94;5059634;28;20519;-64
2021/06/15 05:37:48;;;;;;;24.10;12.93;;;;;;;18.32;67.07;102007.13;5059416;28;20031;-65
2021/06/15 05:40:15;;;;;;;26.38;13.98;;;;;;;18.33;67.03;102011.59;5056568;28;20031;-65
2021/06/15 05:42:41;;;;;;;25.60;12.93;;;;;;;18.31;66.08;102010.75;5063932;28;20020;-64
2021/06/15 05:45:08;;;;;;;23.27;11.90;;;;;;;18.33;65.10;102009.78;5060899;28;20438;-65
2021/06/15 05:47:34;;;;;;;22.88;11.52;;;;;;;18.20;65.56;102010.81;5058199;28;20025;-65
2021/06/15 05:49:59;;;;;;;23.85;11.10;;;;;;;18.26;65.13;102011.66;5058168;28;20029;-64
2021/06/15 05:52:25;;;;;;;22.63;10.40;;;;;;;18.21;64.93;102015.28;5063943;28;20089;-64
2021/06/15 05:54:50;;;;;;;24.17;11.40;;;;;;;18.12;65.26;102005.53;5062133;28;20047;-64
2021/06/15 05:57:17;;;;;;;25.70;10.98;;;;;;;18.14;65.70;102008.19;5062411;28;20029;-65
2021/06/15 05:59:43;;;;;;;24.23;10.98;;;;;;;18.22;64.86;102011.72;5059369;28;20425;-65
2021/06/15 06:02:08;;;;;;;23.85;10.88;;;;;;;18.27;64.52;102009.84;5058404;28;20032;-64
2021/06/15 06:04:50;;;;;;;24.65;10.63;;;;;;;18.22;64.28;102009.03;5057016;28;20049;-65
2021/06/15 06:09:59;;;;;;;22.08;10.10;;;;;;;18.18;64.24;102009.94;5060624;28;20086;-65
2021/06/15 06:12:24;;;;;;;22.38;9.95;;;;;;;18.27;63.28;102009.84;5062181;28;20425;-66
2021/06/15 06:14:50;;;;;;;23.35;10.13;;;;;;;18.23;63.34;102014.38;5055561;28;20461;-64
2021/06/15 06:17:16;;;;;;;22.17;10.15;;;;;;;18.34;63.17;102016.06;5062569;28;20020;-66
2021/06/15 06:19:41;;;;;;;23.48;10.23;;;;;;;18.45;63.21;102015.03;5057852;28;20032;-66
2021/06/15 06:22:07;;;;;;;22.48;9.93;;;;;;;18.49;61.77;102017.69;5057771;28;20448;-67
2021/06/15 06:24:33;;;;;;;22.42;9.75;;;;;;;18.49;61.34;102015.00;5059676;28;20495;-67
2021/06/15 06:26:58;;;;;;;22.10;9.70;;;;;;;18.59;61.69;102022.03;5060257;28;20064;-67
2021/06/15 06:29:24;;;;;;;21.80;9.05;;;;;;;18.66;60.67;102025.56;5061007;28;20115;-65
2021/06/15 06:31:49;;;;;;;21.67;9.88;;;;;;;18.65;59.72;102016.63;5062985;28;20039;-68
2021/06/15 06:34:15;;;;;;;21.65;9.27;;;;;;;18.81;60.25;102023.59;5062738;28;20032;-66
2021/06/15 06:36:40;;;;;;;22.38;9.25;;;;;;;19.07;59.13;102022.41;5063952;28;20066;-65
2021/06/15 06:39:07;;;;;;;22.20;9.48;;;;;;;19.29;58.76;102024.81;5059841;28;20028;-65
2021/06/15 06:41:34;;;;;;;22.65;9.38;;;;;;;19.33;58.39;102030.09;5062363;28;20085;-65
2021/06/15 06:43:59;;;;;;;23.75;9.38;;;;;;;19.49;56.31;102030.78;5057397;28;20037;-64
2021/06/15 06:46:25;;;;;;;22.10;9.15;;;;;;;19.72;55.33;102034.94;5056623;28;20035;-65
2021/06/15 06:48:50;;;;;;;22.27;9.20;;;;;;;19.92;56.10;102039.13;5060136;28;20055;-65
2021/06/15 06:51:15;;;;;;;21.42;8.88;;;;;;;20.03;54.95;102040.72;5061340;28;20073;-65
2021/06/15 06:53:41;;;;;;;23.75;10.05;;;;;;;20.00;54.60;102034.53;5060181;28;20065;-65
2021/06/15 06:56:07;;;;;;;22.25;8.70;;;;;;;20.00;55.01;102039.91;5061234;28;20105;-65
2021/06/15 06:58:33;;;;;;;23.88;8.77;;;;;;;19.92;54.60;102040.03;5056671;28;20028;-65
2021/06/15 07:00:59;;;;;;;22.45;8.98;;;;;;;19.81;54.63;102045.56;5061306;28;20029;-65
2021/06/15 07:03:24;;;;;;;20.88;8.68;;;;;;;19.90;54.41;102043.66;5059015;28;20507;-65
2021/06/15 07:05:49;;;;;;;22.35;8.00;;;;;;;20.03;53.27;102045.22;5061879;28;20024;-64
2021/06/15 07:08:15;;;;;;;20.17;7.47;;;;;;;20.13;51.75;102041.47;5060348;28;20391;-64
2021/06/15 07:10:40;;;;;;;21.92;8.25;;;;;;;20.23;52.57;102047.59;5063172;28;20025;-65
2021/06/15 07:13:05;;;;;;;20.80;8.25;;;;;;;20.21;53.35;102044.00;5063959;28;20028;-65
2021/06/15 07:15:31;;;;;;;21.20;8.30;;;;;;;20.26;53.56;102042.16;5066749;28;20486;-65
2021/06/15 07:17:56;;;;;;;21.27;8.63;;;;;;;20.32;53.54;102054.59;5061978;28;20025;-62
2021/06/15 07:20:22;;;;;;;21.55;8.30;;;;;;;20.19;52.94;102051.22;5060134;28;20033;-61
2021/06/15 07:22:47;;;;;;;20.65;8.27;;;;;;;20.28;52.93;102055.56;5061520;28;20046;-62
2021/06/15 07:25:13;;;;;;;21.15;8.00;;;;;;;20.46;52.35;102049.88;5060225;28;20119;-62
2021/06/15 07:27:39;;;;;;;21.75;7.47;;;;;;;20.47;51.40;102050.75;5061134;28;20183;-62
2021/06/15 07:30:06;;;;;;;19.48;7.18;;;;;;;20.78;51.40;102052.88;5060824;28;20060;-63
2021/06/15 07:32:31;;;;;;;21.70;7.50;;;;;;;20.85;50.40;102052.75;5060343;28;20059;-63
2021/06/15 07:34:56;;;;;;;19.85;7.18;;;;;;;21.05;50.51;102056.84;5061921;28;20056;-63
2021/06/15 07:37:22;;;;;;;20.55;8.32;;;;;;;21.06;50.93;102059.47;5057899;28;20104;-62
2021/06/15 07:39:47;;;;;;;22.40;8.35;;;;;;;20.96;51.88;102049.84;5060133;28;20147;-66
2021/06/15 07:42:13;;;;;;;22.63;8.65;;;;;;;21.17;50.92;102053.91;5061706;28;20080;-66
2021/06/15 07:44:39;;;;;;;21.00;8.68;;;;;;;21.20;50.45;102064.59;5061880;28;20560;-67
2021/06/15 07:47:04;;;;;;;22.10;8.60;;;;;;;21.19;49.98;102064.63;5060208;28;20056;-65
2021/06/15 07:49:30;;;;;;;22.20;8.45;;;;;;;21.18;50.08;102055.66;5062572;28;20022;-65
2021/06/15 07:51:56;;;;;;;20.95;8.55;;;;;;;21.45;48.68;102061.38;5056876;28;20024;-65
2021/06/15 07:54:21;;;;;;;22.20;8.32;;;;;;;21.78;49.55;102066.94;5060844;28;20036;-65
2021/06/15 07:56:47;;;;;;;21.63;7.80;;;;;;;21.87;48.51;102055.97;5058677;28;20051;-65
2021/06/15 07:59:12;;;;;;;24.38;8.38;;;;;;;21.78;48.33;102053.47;5057989;28;20024;-65
2021/06/15 08:01:37;;;;;;;22.63;8.07;;;;;;;21.66;48.36;102048.41;5058461;28;20100;-65
2021/06/15 08:04:03;;;;;;;21.00;8.05;;;;;;;22.00;48.57;102061.03;5058341;28;20060;-67
2021/06/15 08:06:28;;;;;;;19.40;7.28;;;;;;;22.33;47.19;102059.34;5060274;28;20037;-68
2021/06/15 08:08:54;;;;;;;21.60;8.30;;;;;;;22.51;45.72;102066.03;5057171;28;20037;-65
2021/06/15 08:11:19;;;;;;;22.50;7.60;;;;;;;22.60;45.39;102068.50;5062487;28;20520;-67
2021/06/15 08:13:45;;;;;;;24.80;8.05;;;;;;;22.51;45.41;102057.09;5064898;28;20055;-66
2021/06/15 08:16:10;;;;;;;22.35;7.68;;;;;;;22.46;44.70;102050.00;5063331;28;20146;-65
2021/06/15 08:18:36;;;;;;;19.42;7.45;;;;;;;22.56;45.57;102061.44;5063671;28;20029;-66
2021/06/15 08:21:02;;;;;;;21.40;7.05;;;;;;;22.74;45.01;102059.16;5064354;28;20490;-66
2021/06/15 08:23:28;;;;;;;21.83;7.15;;;;;;;23.01;44.77;102062.91;5063004;28;20032;-62
2021/06/15 08:25:54;;;;;;;19.50;6.65;;;;;;;23.32;43.62;102062.91;5065746;28;20025;-63
2021/06/15 08:28:20;;;;;;;19.92;6.80;;;;;;;23.46;42.28;102058.91;5058322;28;20107;-62
2021/06/15 08:30:46;;;;;;;21.08;6.72;;;;;;;23.85;42.32;102061.28;5065152;28;20028;-63
2021/06/15 08:33:11;;;;;;;18.73;6.38;;;;;;;24.28;41.29;102049.09;5063090;28;20052;-63
2021/06/15 08:35:37;;;;;;;20.33;6.85;;;;;;;24.50;40.22;102054.63;5063819;28;20498;-63
2021/06/15 08:38:03;;;;;;;20.50;7.00;;;;;;;24.19;40.37;102060.22;5063482;28;20040;-63
2021/06/15 08:40:29;;;;;;;19.75;7.10;;;;;;;23.94;40.41;102052.03;5062591;28;20029;-63
2021/06/15 08:42:55;;;;;;;19.38;6.00;;;;;;;24.35;39.46;102050.66;5065145;28;20092;-63
2021/06/15 08:45:20;;;;;;;19.33;5.90;;;;;;;24.60;40.19;102047.13;5062024;28;20484;-64
2021/06/15 08:47:48;;;;;;;18.88;6.07;;;;;;;24.65;39.33;102050.50;5064525;28;20107;-64
2021/06/15 08:50:18;;;;;;;20.98;6.28;;;;;;;24.44;40.27;102048.56;5061505;28;20035;-63
2021/06/15 08:52:44;;;;;;;19.58;6.50;;;;;;;24.23;39.74;102056.44;5064641;28;20437;-63
2021/06/15 08:55:10;;;;;;;21.83;6.10;;;;;;;24.16;40.63;102052.22;5062828;28;20482;-63
2021/06/15 08:57:37;;;;;;;18.65;6.15;;;;;;;24.30;41.08;102049.03;5063142;28;20426;-63
2021/06/15 09:00:08;;;;;;;20.38;6.20;;;;;;;24.38;40.44;102038.84;5063955;28;20464;-63
2021/06/15 09:02:42;;;;;;;20.00;6.10;;;;;;;24.40;40.43;102041.50;5062627;28;20032;-63
2021/06/15 09:05:08;;;;;;;20.35;6.10;;;;;;;24.19;39.25;102049.41;5062828;28;20448;-63
2021/06/15 09:07:56;;;;;;;19.63;5.53;;;;;;;24.16;40.44;102046.81;5062588;28;20171;-63
2021/06/15 09:10:26;;;;;;;17.88;6.13;;;;;;;23.95;40.39;102040.31;5057144;28;20496;-63
2021/06/15 09:12:52;;;;;;;17.27;5.38;;;;;;;24.10;39.95;102049.69;5057757;28;20017;-63
2021/06/15 09:15:22;;;;;;;18.95;4.75;;;;;;;24.43;39.02;102044.09;5064446;28;20031;-63
2021/06/15 09:17:48;;;;;;;19.60;5.88;;;;;;;24.47;38.65;102051.16;5061564;28;20021;-63
2021/06/15 09:20:28;;;;;;;18.63;5.75;;;;;;;24.01;39.60;102054.50;5063838;28;20025;-63
2021/06/15 09:23:11;;;;;;;19.67;5.40;;;;;;;24.23;39.96;102055.56;5058013;28;20013;-63
2021/06/15 09:25:37;;;;;;;18.50;5.80;;;;;;;24.57;38.19;102049.91;5061316;28;20048;-64
2021/06/15 09:28:20;;;;;;;17.83;5.10;;;;;;;24.79;38.76;102057.28;5063619;28;20028;-63
2021/06/15 09:31:03;;;;;;;18.05;5.18;;;;;;;24.97;38.11;102053.88;5064066;28;20044;-64
2021/06/15 09:33:47;;;;;;;18.85;5.03;;;;;;;24.92;37.56;102055.00;5058581;28;20024;-63
2021/06/15 09:36:12;;;;;;;17.42;4.47;;;;;;;25.15;36.43;102046.00;5061767;28;20036;-64
2021/06/15 09:38:52;;;;;;;16.55;4.50;;;;;;;25.79;36.72;102047.13;5063148;28;20025;-63
2021/06/15 09:41:41;;;;;;;15.13;4.13;;;;;;;25.81;36.10;102045.28;5058341;28;20130;-64
2021/06/15 09:44:13;;;;;;;18.98;4.10;;;;;;;25.46;36.35;102045.72;5062148;28;20082;-64
2021/06/15 09:46:48;;;;;;;14.68;4.18;;;;;;;25.36;36.04;102042.50;5061285;28;20024;-64
2021/06/15 09:49:29;;;;;;;17.40;4.50;;;;;;;25.59;35.48;102051.53;5063485;28;20515;-63
2021/06/15 09:52:21;;;;;;;16.73;3.90;;;;;;;26.16;33.58;102042.94;5058766;28;20032;-63
2021/06/15 09:55:02;;;;;;;15.02;3.80;;;;;;;26.49;33.33;102037.91;5057066;28;20025;-64
2021/06/15 09:57:33;;;;;;;16.65;3.38;;;;;;;26.74;33.23;102040.41;5059726;28;20107;-64
2021/06/15 10:00:07;;;;;;;12.65;3.72;;;;;;;26.69;31.11;102037.00;5062314;28;20039;-64
2021/06/15 10:02:32;;;;;;;15.00;3.90;;;;;;;26.70;33.18;102038.78;5062681;28;20120;-64
2021/06/15 10:05:04;;;;;;;14.32;3.80;;;;;;;26.89;32.23;102041.53;5062594;28;20119;-64
2021/06/15 10:07:31;;;;;;;13.43;3.50;;;;;;;27.56;30.39;102036.63;5061913;28;20464;-64
2021/06/15 10:09:58;;;;;;;15.82;3.75;;;;;;;28.50;29.46;102031.91;5063102;28;20025;-63
2021/06/15 10:12:24;;;;;;;14.00;3.50;;;;;;;29.80;27.08;102032.09;5061145;28;20035;-65
2021/06/15 10:14:53;;;;;;;13.27;3.53;;;;;;;29.66;26.65;102046.50;5063783;28;20496;-64
2021/06/15 10:17:18;;;;;;;15.45;3.55;;;;;;;29.11;28.05;102035.03;5060387;28;20111;-64
2021/06/15 10:19:44;;;;;;;19.20;3.85;;;;;;;29.23;28.63;102040.75;5063975;28;20104;-64
2021/06/15 10:22:09;;;;;;;17.17;3.70;;;;;;;30.74;25.99;102042.84;5060249;28;20033;-64
2021/06/15 10:24:39;;;;;;;12.75;3.38;;;;;;;31.72;24.71;102043.00;5062911;28;20406;-63
2021/06/15 10:27:10;;;;;;;15.43;3.30;;;;;;;31.75;24.49;102037.34;5061878;28;20074;-64
2021/06/15 10:29:37;;;;;;;16.33;3.00;;;;;;;32.67;23.51;102032.88;5062819;28;20033;-64
2021/06/15 10:32:12;;;;;;;8.77;2.65;;;;;;;33.01;23.94;102028.59;5061947;28;20077;-64
2021/06/15 10:34:44;;;;;;;11.52;2.80;;;;;;;33.57;23.06;102027.28;5063290;28;20021;-64
2021/06/15 10:37:33;;;;;;;12.45;2.92;;;;;;;34.38;22.02;102022.97;5061066;28;20037;-65
2021/06/15 10:40:00;;;;;;;14.27;3.10;;;;;;;34.69;19.44;102016.88;5059234;28;20021;-64
2021/06/15 10:42:25;;;;;;;16.02;3.10;;;;;;;35.36;20.37;102007.81;5063199;28;20020;-63
2021/06/15 10:45:23;;;;;;;17.17;3.20;;;;;;;35.63;20.49;102022.09;5060435;28;20522;-64
2021/06/15 10:48:04;;;;;;;13.02;3.10;;;;;;;35.28;20.72;102012.16;5056720;28;20486;-64
2021/06/15 10:50:36;;;;;;;12.38;2.70;;;;;;;33.92;21.32;102011.91;5059247;28;20021;-65
2021/06/15 10:53:02;;;;;;;11.07;3.03;;;;;;;32.17;22.37;102010.81;5062106;28;20028;-64
2021/06/15 10:56:10;;;;;;;11.18;2.78;;;;;;;31.54;24.75;102013.13;5061401;28;20025;-63
2021/06/15 10:58:36;;;;;;;11.43;2.70;;;;;;;30.74;25.45;102007.38;5059746;28;20175;-64
2021/06/15 11:01:24;;;;;;;12.35;2.83;;;;;;;30.57;26.27;102017.50;5062368;28;20115;-64
2021/06/15 11:03:57;;;;;;;13.65;3.05;;;;;;;30.32;26.58;102011.75;5056385;28;20059;-64
2021/06/15 11:06:29;;;;;;;13.40;2.95;;;;;;;29.96;26.32;102008.44;5057257;28;20049;-64
2021/06/15 11:09:03;;;;;;;9.13;2.70;;;;;;;30.29;26.39;102006.50;5062848;28;20074;-64
2021/06/15 11:11:31;;;;;;;10.20;2.90;;;;;;;30.99;25.31;101997.59;5061221;28;20053;-64
2021/06/15 11:14:05;;;;;;;10.68;2.80;;;;;;;31.56;24.86;102013.06;5066290;28;20021;-64
2021/06/15 11:16:37;;;;;;;11.55;2.80;;;;;;;31.76;24.79;102006.28;5057310;28;20095;-62
2021/06/15 11:19:11;;;;;;;11.43;3.10;;;;;;;32.11;23.06;102005.72;5055535;28;20411;-63
2021/06/15 11:21:57;;;;;;;12.75;3.33;;;;;;;33.01;23.45;101990.28;5059417;28;20421;-64
2021/06/15 11:24:39;;;;;;;16.67;3.97;;;;;;;34.18;21.88;101990.66;5058105;28;20403;-64
2021/06/15 11:27:18;;;;;;;15.20;3.70;;;;;;;35.13;21.82;101997.81;5057006;28;20040;-63